sensor_id;sensor_type;location;lat;lon;timestamp;P1;durP1;ratioP1;P2;durP2;ratioP2
42186;SDS011;27858;51.414;0.018;2023-09-18T00:00:03;4.03;;;2.17;;
42186;SDS011;27858;51.414;0.018;2023-09-18T00:02:38;4.72;;;1.75;;
42186;SDS011;27858;51.414;0.018;2023-09-18T00:05:06;1.70;;;1.45;;
42186;SDS011;27858;51.414;0.018;2023-09-18T00:07:33;3.15;;;1.77;;
42186;SDS011;27858;51.414;0.018;2023-09-18T00:10:00;3.80;;;1.95;;
42186;SDS011;27858;51.414;0.018;2023-09-18T00:12:26;3.55;;;1.83;;
42186;SDS011;27858;51.414;0.018;2023-09-18T00:14:53;5.13;;;1.52;;
42186;SDS011;27858;51.414;0.018;2023-09-18T00:17:20;4.47;;;2.03;;
42186;SDS011;27858;51.414;0.018;2023-09-18T00:19:50;2.17;;;1.67;;
42186;SDS011;27858;51.414;0.018;2023-09-18T00:22:18;3.50;;;2.33;;
42186;SDS011;27858;51.414;0.018;2023-09-18T00:24:44;1.60;;;1.48;;
42186;SDS011;27858;51.414;0.018;2023-09-18T00:27:11;3.42;;;1.52;;
42186;SDS011;27858;51.414;0.018;2023-09-18T00:29:39;6.05;;;1.67;;
42186;SDS011;27858;51.414;0.018;2023-09-18T00:32:06;4.07;;;1.58;;
42186;SDS011;27858;51.414;0.018;2023-09-18T00:34:34;1.80;;;1.13;;
42186;SDS011;27858;51.414;0.018;2023-09-18T00:37:00;2.20;;;1.33;;
42186;SDS011;27858;51.414;0.018;2023-09-18T00:39:28;3.70;;;1.48;;
42186;SDS011;27858;51.414;0.018;2023-09-18T00:41:54;3.92;;;0.98;;
42186;SDS011;27858;51.414;0.018;2023-09-18T00:44:21;0.70;;;0.63;;
42186;SDS011;27858;51.414;0.018;2023-09-18T00:46:49;6.18;;;1.60;;
42186;SDS011;27858;51.414;0.018;2023-09-18T00:49:17;1.48;;;0.90;;
42186;SDS011;27858;51.414;0.018;2023-09-18T00:51:45;2.88;;;1.02;;
42186;SDS011;27858;51.414;0.018;2023-09-18T00:54:14;1.75;;;0.88;;
42186;SDS011;27858;51.414;0.018;2023-09-18T00:56:45;3.22;;;0.80;;
42186;SDS011;27858;51.414;0.018;2023-09-18T00:59:14;2.10;;;0.60;;
42186;SDS011;27858;51.414;0.018;2023-09-18T01:01:41;1.17;;;0.95;;
42186;SDS011;27858;51.414;0.018;2023-09-18T01:04:09;1.10;;;1.00;;
42186;SDS011;27858;51.414;0.018;2023-09-18T01:06:36;1.63;;;1.10;;
42186;SDS011;27858;51.414;0.018;2023-09-18T01:09:04;1.38;;;0.93;;
42186;SDS011;27858;51.414;0.018;2023-09-18T01:11:43;2.28;;;1.17;;
42186;SDS011;27858;51.414;0.018;2023-09-18T01:14:20;1.58;;;0.82;;
42186;SDS011;27858;51.414;0.018;2023-09-18T01:16:58;3.80;;;1.13;;
42186;SDS011;27858;51.414;0.018;2023-09-18T01:19:35;1.40;;;0.63;;
42186;SDS011;27858;51.414;0.018;2023-09-18T01:22:03;1.50;;;1.10;;
42186;SDS011;27858;51.414;0.018;2023-09-18T01:24:35;1.38;;;1.08;;
42186;SDS011;27858;51.414;0.018;2023-09-18T01:27:04;7.15;;;1.83;;
42186;SDS011;27858;51.414;0.018;2023-09-18T01:29:31;3.40;;;1.30;;
42186;SDS011;27858;51.414;0.018;2023-09-18T01:31:58;2.38;;;1.02;;
42186;SDS011;27858;51.414;0.018;2023-09-18T01:34:25;5.35;;;1.52;;
42186;SDS011;27858;51.414;0.018;2023-09-18T01:36:59;2.72;;;1.08;;
42186;SDS011;27858;51.414;0.018;2023-09-18T01:39:27;1.55;;;0.82;;
42186;SDS011;27858;51.414;0.018;2023-09-18T01:42:01;2.33;;;0.70;;
42186;SDS011;27858;51.414;0.018;2023-09-18T01:44:30;3.10;;;1.17;;
42186;SDS011;27858;51.414;0.018;2023-09-18T01:46:58;2.38;;;1.20;;
42186;SDS011;27858;51.414;0.018;2023-09-18T01:49:37;1.77;;;1.00;;
42186;SDS011;27858;51.414;0.018;2023-09-18T01:52:05;2.25;;;1.17;;
42186;SDS011;27858;51.414;0.018;2023-09-18T01:54:33;5.88;;;1.70;;
42186;SDS011;27858;51.414;0.018;2023-09-18T01:57:01;1.15;;;1.02;;
42186;SDS011;27858;51.414;0.018;2023-09-18T01:59:29;13.60;;;1.83;;
42186;SDS011;27858;51.414;0.018;2023-09-18T02:01:56;1.65;;;0.90;;
42186;SDS011;27858;51.414;0.018;2023-09-18T02:04:24;1.98;;;1.00;;
42186;SDS011;27858;51.414;0.018;2023-09-18T02:07:12;2.55;;;1.35;;
42186;SDS011;27858;51.414;0.018;2023-09-18T02:09:40;2.85;;;1.15;;
42186;SDS011;27858;51.414;0.018;2023-09-18T02:12:07;4.05;;;1.50;;
42186;SDS011;27858;51.414;0.018;2023-09-18T02:14:33;2.58;;;1.00;;
42186;SDS011;27858;51.414;0.018;2023-09-18T02:17:00;4.57;;;1.33;;
42186;SDS011;27858;51.414;0.018;2023-09-18T02:19:27;2.97;;;1.35;;
42186;SDS011;27858;51.414;0.018;2023-09-18T02:21:56;2.58;;;1.30;;
42186;SDS011;27858;51.414;0.018;2023-09-18T02:24:24;4.10;;;1.15;;
42186;SDS011;27858;51.414;0.018;2023-09-18T02:26:51;3.40;;;1.10;;
42186;SDS011;27858;51.414;0.018;2023-09-18T02:29:17;1.77;;;0.95;;
42186;SDS011;27858;51.414;0.018;2023-09-18T02:31:44;2.53;;;1.25;;
42186;SDS011;27858;51.414;0.018;2023-09-18T02:34:11;1.63;;;0.82;;
42186;SDS011;27858;51.414;0.018;2023-09-18T02:36:38;1.52;;;1.05;;
42186;SDS011;27858;51.414;0.018;2023-09-18T02:39:05;4.25;;;1.30;;
42186;SDS011;27858;51.414;0.018;2023-09-18T02:41:31;1.30;;;0.93;;
42186;SDS011;27858;51.414;0.018;2023-09-18T02:43:58;2.00;;;0.80;;
42186;SDS011;27858;51.414;0.018;2023-09-18T02:46:25;4.60;;;1.50;;
42186;SDS011;27858;51.414;0.018;2023-09-18T02:48:52;1.85;;;1.10;;
42186;SDS011;27858;51.414;0.018;2023-09-18T02:51:19;5.43;;;1.30;;
42186;SDS011;27858;51.414;0.018;2023-09-18T02:53:46;2.50;;;1.38;;
42186;SDS011;27858;51.414;0.018;2023-09-18T02:56:13;4.07;;;1.50;;
42186;SDS011;27858;51.414;0.018;2023-09-18T02:58:40;2.53;;;1.33;;
42186;SDS011;27858;51.414;0.018;2023-09-18T03:01:07;1.90;;;1.13;;
42186;SDS011;27858;51.414;0.018;2023-09-18T03:03:34;3.45;;;0.93;;
42186;SDS011;27858;51.414;0.018;2023-09-18T03:06:05;6.18;;;1.63;;
42186;SDS011;27858;51.414;0.018;2023-09-18T03:08:33;4.97;;;1.15;;
42186;SDS011;27858;51.414;0.018;2023-09-18T03:11:00;4.40;;;1.38;;
42186;SDS011;27858;51.414;0.018;2023-09-18T03:13:27;3.55;;;1.55;;
42186;SDS011;27858;51.414;0.018;2023-09-18T03:15:54;2.00;;;1.13;;
42186;SDS011;27858;51.414;0.018;2023-09-18T03:18:23;2.78;;;1.48;;
42186;SDS011;27858;51.414;0.018;2023-09-18T03:20:50;4.38;;;1.50;;
42186;SDS011;27858;51.414;0.018;2023-09-18T03:23:16;3.05;;;1.60;;
42186;SDS011;27858;51.414;0.018;2023-09-18T03:25:44;2.88;;;1.17;;
42186;SDS011;27858;51.414;0.018;2023-09-18T03:28:16;2.67;;;0.90;;
42186;SDS011;27858;51.414;0.018;2023-09-18T03:30:43;3.42;;;1.20;;
42186;SDS011;27858;51.414;0.018;2023-09-18T03:33:09;2.38;;;1.30;;
42186;SDS011;27858;51.414;0.018;2023-09-18T03:35:46;2.03;;;1.10;;
42186;SDS011;27858;51.414;0.018;2023-09-18T03:38:14;1.38;;;1.27;;
42186;SDS011;27858;51.414;0.018;2023-09-18T03:40:41;3.65;;;1.50;;
42186;SDS011;27858;51.414;0.018;2023-09-18T03:43:10;3.05;;;1.50;;
42186;SDS011;27858;51.414;0.018;2023-09-18T03:45:38;4.15;;;1.50;;
42186;SDS011;27858;51.414;0.018;2023-09-18T03:48:08;4.55;;;2.00;;
42186;SDS011;27858;51.414;0.018;2023-09-18T03:50:36;11.30;;;2.70;;
42186;SDS011;27858;51.414;0.018;2023-09-18T03:53:03;3.90;;;1.48;;
42186;SDS011;27858;51.414;0.018;2023-09-18T03:55:30;6.18;;;1.77;;
42186;SDS011;27858;51.414;0.018;2023-09-18T03:57:57;3.13;;;1.80;;
42186;SDS011;27858;51.414;0.018;2023-09-18T04:00:23;6.20;;;1.65;;
42186;SDS011;27858;51.414;0.018;2023-09-18T04:02:50;7.57;;;1.73;;
42186;SDS011;27858;51.414;0.018;2023-09-18T04:05:17;9.30;;;1.90;;
42186;SDS011;27858;51.414;0.018;2023-09-18T04:07:45;8.05;;;2.22;;
42186;SDS011;27858;51.414;0.018;2023-09-18T04:10:15;4.72;;;1.90;;
42186;SDS011;27858;51.414;0.018;2023-09-18T04:12:50;4.60;;;1.73;;
42186;SDS011;27858;51.414;0.018;2023-09-18T04:15:18;9.55;;;1.95;;
42186;SDS011;27858;51.414;0.018;2023-09-18T04:17:45;12.10;;;2.05;;
42186;SDS011;27858;51.414;0.018;2023-09-18T04:20:14;6.28;;;1.92;;
42186;SDS011;27858;51.414;0.018;2023-09-18T04:22:45;7.40;;;1.73;;
42186;SDS011;27858;51.414;0.018;2023-09-18T04:25:17;4.70;;;2.10;;
42186;SDS011;27858;51.414;0.018;2023-09-18T04:27:46;10.70;;;2.08;;
42186;SDS011;27858;51.414;0.018;2023-09-18T04:30:16;9.10;;;1.85;;
42186;SDS011;27858;51.414;0.018;2023-09-18T04:32:45;5.53;;;1.98;;
42186;SDS011;27858;51.414;0.018;2023-09-18T04:35:12;7.40;;;1.77;;
42186;SDS011;27858;51.414;0.018;2023-09-18T04:37:39;8.98;;;2.72;;
42186;SDS011;27858;51.414;0.018;2023-09-18T04:40:06;4.45;;;1.90;;
42186;SDS011;27858;51.414;0.018;2023-09-18T04:42:38;5.85;;;2.15;;
42186;SDS011;27858;51.414;0.018;2023-09-18T04:45:06;6.47;;;2.47;;
42186;SDS011;27858;51.414;0.018;2023-09-18T04:47:33;4.47;;;1.95;;
42186;SDS011;27858;51.414;0.018;2023-09-18T04:50:00;5.05;;;2.28;;
42186;SDS011;27858;51.414;0.018;2023-09-18T04:52:38;6.38;;;1.77;;
42186;SDS011;27858;51.414;0.018;2023-09-18T04:55:09;4.72;;;1.98;;
42186;SDS011;27858;51.414;0.018;2023-09-18T04:57:37;4.20;;;1.50;;
42186;SDS011;27858;51.414;0.018;2023-09-18T05:00:04;6.90;;;2.22;;
42186;SDS011;27858;51.414;0.018;2023-09-18T05:02:43;2.25;;;1.73;;
42186;SDS011;27858;51.414;0.018;2023-09-18T05:05:11;8.48;;;2.28;;
42186;SDS011;27858;51.414;0.018;2023-09-18T05:07:38;5.35;;;2.30;;
42186;SDS011;27858;51.414;0.018;2023-09-18T05:10:05;5.47;;;2.25;;
42186;SDS011;27858;51.414;0.018;2023-09-18T05:12:32;7.95;;;2.83;;
42186;SDS011;27858;51.414;0.018;2023-09-18T05:14:59;5.55;;;1.80;;
42186;SDS011;27858;51.414;0.018;2023-09-18T05:17:45;4.78;;;2.47;;
42186;SDS011;27858;51.414;0.018;2023-09-18T05:20:16;6.20;;;2.92;;
42186;SDS011;27858;51.414;0.018;2023-09-18T05:22:44;6.93;;;2.42;;
42186;SDS011;27858;51.414;0.018;2023-09-18T05:25:11;7.65;;;2.78;;
42186;SDS011;27858;51.414;0.018;2023-09-18T05:27:38;7.22;;;2.80;;
42186;SDS011;27858;51.414;0.018;2023-09-18T05:30:15;3.47;;;2.17;;
42186;SDS011;27858;51.414;0.018;2023-09-18T05:32:48;4.57;;;2.70;;
42186;SDS011;27858;51.414;0.018;2023-09-18T05:35:15;2.90;;;2.30;;
42186;SDS011;27858;51.414;0.018;2023-09-18T05:37:43;6.80;;;2.78;;
42186;SDS011;27858;51.414;0.018;2023-09-18T05:40:11;11.77;;;2.83;;
42186;SDS011;27858;51.414;0.018;2023-09-18T05:42:39;7.10;;;2.83;;
42186;SDS011;27858;51.414;0.018;2023-09-18T05:45:10;11.02;;;2.63;;
42186;SDS011;27858;51.414;0.018;2023-09-18T05:47:38;7.07;;;2.63;;
42186;SDS011;27858;51.414;0.018;2023-09-18T05:50:05;9.60;;;2.95;;
42186;SDS011;27858;51.414;0.018;2023-09-18T05:52:33;10.90;;;2.80;;
42186;SDS011;27858;51.414;0.018;2023-09-18T05:55:04;7.22;;;2.75;;
42186;SDS011;27858;51.414;0.018;2023-09-18T05:57:34;6.13;;;3.10;;
42186;SDS011;27858;51.414;0.018;2023-09-18T06:00:01;3.95;;;1.98;;
42186;SDS011;27858;51.414;0.018;2023-09-18T06:02:28;6.28;;;2.45;;
42186;SDS011;27858;51.414;0.018;2023-09-18T06:04:56;2.70;;;1.90;;
42186;SDS011;27858;51.414;0.018;2023-09-18T06:07:32;5.78;;;2.25;;
42186;SDS011;27858;51.414;0.018;2023-09-18T06:09:59;6.00;;;2.95;;
42186;SDS011;27858;51.414;0.018;2023-09-18T06:12:26;2.97;;;2.20;;
42186;SDS011;27858;51.414;0.018;2023-09-18T06:14:53;9.27;;;3.30;;
42186;SDS011;27858;51.414;0.018;2023-09-18T06:17:20;3.58;;;2.55;;
42186;SDS011;27858;51.414;0.018;2023-09-18T06:19:47;7.55;;;3.03;;
42186;SDS011;27858;51.414;0.018;2023-09-18T06:22:14;5.43;;;3.08;;
42186;SDS011;27858;51.414;0.018;2023-09-18T06:24:41;3.97;;;2.60;;
42186;SDS011;27858;51.414;0.018;2023-09-18T06:27:08;5.13;;;2.88;;
42186;SDS011;27858;51.414;0.018;2023-09-18T06:29:37;8.00;;;3.08;;
42186;SDS011;27858;51.414;0.018;2023-09-18T06:32:05;8.20;;;3.08;;
42186;SDS011;27858;51.414;0.018;2023-09-18T06:34:32;5.50;;;2.35;;
42186;SDS011;27858;51.414;0.018;2023-09-18T06:36:59;6.35;;;3.10;;
42186;SDS011;27858;51.414;0.018;2023-09-18T06:39:26;4.38;;;2.85;;
42186;SDS011;27858;51.414;0.018;2023-09-18T06:41:53;7.00;;;3.00;;
42186;SDS011;27858;51.414;0.018;2023-09-18T06:44:20;3.90;;;2.70;;
42186;SDS011;27858;51.414;0.018;2023-09-18T06:46:49;12.10;;;3.72;;
42186;SDS011;27858;51.414;0.018;2023-09-18T06:49:16;4.43;;;2.47;;
42186;SDS011;27858;51.414;0.018;2023-09-18T06:51:45;4.78;;;2.53;;
42186;SDS011;27858;51.414;0.018;2023-09-18T06:54:12;2.72;;;2.50;;
42186;SDS011;27858;51.414;0.018;2023-09-18T06:56:39;5.53;;;2.70;;
42186;SDS011;27858;51.414;0.018;2023-09-18T06:59:08;3.47;;;2.65;;
42186;SDS011;27858;51.414;0.018;2023-09-18T07:01:34;5.35;;;2.67;;
42186;SDS011;27858;51.414;0.018;2023-09-18T07:04:01;4.88;;;2.92;;
42186;SDS011;27858;51.414;0.018;2023-09-18T07:06:30;3.50;;;2.08;;
42186;SDS011;27858;51.414;0.018;2023-09-18T07:08:57;5.15;;;2.65;;
42186;SDS011;27858;51.414;0.018;2023-09-18T07:11:25;8.30;;;2.85;;
42186;SDS011;27858;51.414;0.018;2023-09-18T07:13:52;5.03;;;2.70;;
42186;SDS011;27858;51.414;0.018;2023-09-18T07:16:19;3.65;;;2.33;;
42186;SDS011;27858;51.414;0.018;2023-09-18T07:18:46;7.78;;;3.10;;
42186;SDS011;27858;51.414;0.018;2023-09-18T07:21:13;4.18;;;2.40;;
42186;SDS011;27858;51.414;0.018;2023-09-18T07:23:40;7.75;;;2.85;;
42186;SDS011;27858;51.414;0.018;2023-09-18T07:26:07;6.22;;;2.30;;
42186;SDS011;27858;51.414;0.018;2023-09-18T07:28:34;5.07;;;2.67;;
42186;SDS011;27858;51.414;0.018;2023-09-18T07:31:08;3.38;;;2.55;;
42186;SDS011;27858;51.414;0.018;2023-09-18T07:33:35;5.60;;;2.38;;
42186;SDS011;27858;51.414;0.018;2023-09-18T07:36:02;2.03;;;1.58;;
42186;SDS011;27858;51.414;0.018;2023-09-18T07:38:30;3.72;;;2.55;;
42186;SDS011;27858;51.414;0.018;2023-09-18T07:40:58;4.32;;;2.00;;
42186;SDS011;27858;51.414;0.018;2023-09-18T07:43:25;2.58;;;1.73;;
42186;SDS011;27858;51.414;0.018;2023-09-18T07:45:52;10.35;;;1.77;;
42186;SDS011;27858;51.414;0.018;2023-09-18T07:48:21;5.28;;;2.33;;
42186;SDS011;27858;51.414;0.018;2023-09-18T07:50:48;5.93;;;2.00;;
42186;SDS011;27858;51.414;0.018;2023-09-18T07:53:17;6.80;;;2.03;;
42186;SDS011;27858;51.414;0.018;2023-09-18T07:55:45;3.40;;;2.13;;
42186;SDS011;27858;51.414;0.018;2023-09-18T07:58:13;8.70;;;2.78;;
42186;SDS011;27858;51.414;0.018;2023-09-18T08:00:40;2.75;;;2.03;;
42186;SDS011;27858;51.414;0.018;2023-09-18T08:03:07;4.38;;;1.90;;
42186;SDS011;27858;51.414;0.018;2023-09-18T08:05:34;3.38;;;2.00;;
42186;SDS011;27858;51.414;0.018;2023-09-18T08:08:01;5.47;;;1.75;;
42186;SDS011;27858;51.414;0.018;2023-09-18T08:10:31;7.43;;;2.25;;
42186;SDS011;27858;51.414;0.018;2023-09-18T08:12:58;6.38;;;2.42;;
42186;SDS011;27858;51.414;0.018;2023-09-18T08:15:25;6.03;;;2.20;;
42186;SDS011;27858;51.414;0.018;2023-09-18T08:17:52;2.88;;;2.25;;
42186;SDS011;27858;51.414;0.018;2023-09-18T08:20:19;7.35;;;1.98;;
42186;SDS011;27858;51.414;0.018;2023-09-18T08:22:46;4.88;;;2.00;;
42186;SDS011;27858;51.414;0.018;2023-09-18T08:25:14;2.60;;;1.67;;
42186;SDS011;27858;51.414;0.018;2023-09-18T08:27:42;8.68;;;2.60;;
42186;SDS011;27858;51.414;0.018;2023-09-18T08:30:11;4.60;;;2.17;;
42186;SDS011;27858;51.414;0.018;2023-09-18T08:32:39;2.38;;;1.50;;
42186;SDS011;27858;51.414;0.018;2023-09-18T08:35:07;4.60;;;2.30;;
42186;SDS011;27858;51.414;0.018;2023-09-18T08:37:35;3.40;;;1.67;;
42186;SDS011;27858;51.414;0.018;2023-09-18T08:40:02;4.43;;;1.67;;
42186;SDS011;27858;51.414;0.018;2023-09-18T08:42:38;6.78;;;2.03;;
42186;SDS011;27858;51.414;0.018;2023-09-18T08:45:08;2.38;;;1.67;;
42186;SDS011;27858;51.414;0.018;2023-09-18T08:47:38;7.50;;;2.03;;
42186;SDS011;27858;51.414;0.018;2023-09-18T08:50:08;6.28;;;2.42;;
42186;SDS011;27858;51.414;0.018;2023-09-18T08:52:36;4.22;;;1.88;;
42186;SDS011;27858;51.414;0.018;2023-09-18T08:55:04;7.05;;;2.72;;
42186;SDS011;27858;51.414;0.018;2023-09-18T08:57:35;4.32;;;2.00;;
42186;SDS011;27858;51.414;0.018;2023-09-18T09:00:04;3.40;;;1.70;;
42186;SDS011;27858;51.414;0.018;2023-09-18T09:02:34;5.13;;;2.50;;
42186;SDS011;27858;51.414;0.018;2023-09-18T09:05:02;5.88;;;1.73;;
42186;SDS011;27858;51.414;0.018;2023-09-18T09:07:29;6.38;;;2.70;;
42186;SDS011;27858;51.414;0.018;2023-09-18T09:09:57;4.78;;;2.40;;
42186;SDS011;27858;51.414;0.018;2023-09-18T09:15:25;3.80;;;1.95;;
42186;SDS011;27858;51.414;0.018;2023-09-18T09:18:02;3.50;;;1.48;;
42186;SDS011;27858;51.414;0.018;2023-09-18T09:20:34;2.45;;;1.40;;
42186;SDS011;27858;51.414;0.018;2023-09-18T09:23:05;2.17;;;1.38;;
42186;SDS011;27858;51.414;0.018;2023-09-18T09:25:33;2.83;;;1.85;;
42186;SDS011;27858;51.414;0.018;2023-09-18T09:28:01;7.53;;;1.65;;
42186;SDS011;27858;51.414;0.018;2023-09-18T09:30:32;4.30;;;1.83;;
42186;SDS011;27858;51.414;0.018;2023-09-18T09:33:00;3.55;;;1.65;;
42186;SDS011;27858;51.414;0.018;2023-09-18T09:35:30;4.78;;;2.30;;
42186;SDS011;27858;51.414;0.018;2023-09-18T09:38:01;6.15;;;3.30;;
42186;SDS011;27858;51.414;0.018;2023-09-18T09:40:41;3.47;;;1.60;;
42186;SDS011;27858;51.414;0.018;2023-09-18T09:43:10;6.68;;;2.17;;
42186;SDS011;27858;51.414;0.018;2023-09-18T09:45:40;3.63;;;1.27;;
42186;SDS011;27858;51.414;0.018;2023-09-18T09:48:08;1.70;;;1.20;;
42186;SDS011;27858;51.414;0.018;2023-09-18T09:50:45;2.00;;;1.10;;
42186;SDS011;27858;51.414;0.018;2023-09-18T09:53:15;3.40;;;1.20;;
42186;SDS011;27858;51.414;0.018;2023-09-18T09:55:42;1.92;;;1.25;;
42186;SDS011;27858;51.414;0.018;2023-09-18T09:58:09;5.85;;;1.73;;
42186;SDS011;27858;51.414;0.018;2023-09-18T10:03:10;1.85;;;1.33;;
42186;SDS011;27858;51.414;0.018;2023-09-18T10:05:40;2.13;;;0.95;;
42186;SDS011;27858;51.414;0.018;2023-09-18T10:08:12;3.35;;;1.00;;
42186;SDS011;27858;51.414;0.018;2023-09-18T10:10:46;4.07;;;1.33;;
42186;SDS011;27858;51.414;0.018;2023-09-18T10:13:35;2.72;;;1.20;;
42186;SDS011;27858;51.414;0.018;2023-09-18T10:16:13;1.17;;;0.70;;
42186;SDS011;27858;51.414;0.018;2023-09-18T10:18:56;4.40;;;1.30;;
42186;SDS011;27858;51.414;0.018;2023-09-18T10:24:30;3.38;;;1.20;;
42186;SDS011;27858;51.414;0.018;2023-09-18T10:29:31;2.83;;;1.13;;
42186;SDS011;27858;51.414;0.018;2023-09-18T10:32:05;1.45;;;0.70;;
42186;SDS011;27858;51.414;0.018;2023-09-18T10:34:36;3.35;;;1.17;;
42186;SDS011;27858;51.414;0.018;2023-09-18T10:37:03;2.90;;;1.00;;
42186;SDS011;27858;51.414;0.018;2023-09-18T10:39:37;1.33;;;0.77;;
42186;SDS011;27858;51.414;0.018;2023-09-18T10:42:07;3.42;;;0.88;;
42186;SDS011;27858;51.414;0.018;2023-09-18T10:44:34;0.57;;;0.50;;
42186;SDS011;27858;51.414;0.018;2023-09-18T10:47:02;0.77;;;0.60;;
42186;SDS011;27858;51.414;0.018;2023-09-18T10:49:34;3.55;;;1.60;;
42186;SDS011;27858;51.414;0.018;2023-09-18T10:52:02;4.47;;;1.17;;
42186;SDS011;27858;51.414;0.018;2023-09-18T10:54:30;1.02;;;0.55;;
42186;SDS011;27858;51.414;0.018;2023-09-18T10:56:58;0.95;;;0.82;;
42186;SDS011;27858;51.414;0.018;2023-09-18T10:59:25;1.75;;;1.30;;
42186;SDS011;27858;51.414;0.018;2023-09-18T11:01:54;3.95;;;1.05;;
42186;SDS011;27858;51.414;0.018;2023-09-18T11:04:22;3.70;;;1.17;;
42186;SDS011;27858;51.414;0.018;2023-09-18T11:09:20;2.58;;;1.13;;
42186;SDS011;27858;51.414;0.018;2023-09-18T11:11:53;6.22;;;1.50;;
42186;SDS011;27858;51.414;0.018;2023-09-18T11:20:06;3.40;;;1.10;;
42186;SDS011;27858;51.414;0.018;2023-09-18T11:22:36;2.33;;;1.13;;
42186;SDS011;27858;51.414;0.018;2023-09-18T11:28:25;1.92;;;1.10;;
42186;SDS011;27858;51.414;0.018;2023-09-18T11:30:55;2.10;;;0.95;;
42186;SDS011;27858;51.414;0.018;2023-09-18T11:36:01;1.30;;;0.98;;
42186;SDS011;27858;51.414;0.018;2023-09-18T11:38:31;3.45;;;1.15;;
42186;SDS011;27858;51.414;0.018;2023-09-18T11:41:00;3.35;;;1.25;;
42186;SDS011;27858;51.414;0.018;2023-09-18T11:43:29;1.88;;;1.10;;
42186;SDS011;27858;51.414;0.018;2023-09-18T11:45:57;1.55;;;1.00;;
42186;SDS011;27858;51.414;0.018;2023-09-18T11:48:26;1.90;;;1.50;;
42186;SDS011;27858;51.414;0.018;2023-09-18T11:50:56;3.58;;;1.48;;
42186;SDS011;27858;51.414;0.018;2023-09-18T11:53:26;5.57;;;1.40;;
42186;SDS011;27858;51.414;0.018;2023-09-18T11:55:54;2.15;;;1.10;;
42186;SDS011;27858;51.414;0.018;2023-09-18T11:58:21;2.45;;;0.75;;
42186;SDS011;27858;51.414;0.018;2023-09-18T12:00:50;1.55;;;1.00;;
42186;SDS011;27858;51.414;0.018;2023-09-18T12:03:23;4.65;;;0.52;;
42186;SDS011;27858;51.414;0.018;2023-09-18T12:05:54;2.15;;;0.75;;
42186;SDS011;27858;51.414;0.018;2023-09-18T12:08:26;0.50;;;0.45;;
42186;SDS011;27858;51.414;0.018;2023-09-18T12:10:58;0.45;;;0.45;;
42186;SDS011;27858;51.414;0.018;2023-09-18T12:13:25;0.82;;;0.73;;
42186;SDS011;27858;51.414;0.018;2023-09-18T12:15:57;2.40;;;0.90;;
42186;SDS011;27858;51.414;0.018;2023-09-18T12:18:26;2.85;;;1.30;;
42186;SDS011;27858;51.414;0.018;2023-09-18T12:20:56;0.95;;;0.70;;
42186;SDS011;27858;51.414;0.018;2023-09-18T12:23:25;1.48;;;1.00;;
42186;SDS011;27858;51.414;0.018;2023-09-18T12:25:57;2.42;;;0.73;;
42186;SDS011;27858;51.414;0.018;2023-09-18T12:30:58;1.30;;;0.70;;
42186;SDS011;27858;51.414;0.018;2023-09-18T12:33:25;2.22;;;0.73;;
42186;SDS011;27858;51.414;0.018;2023-09-18T12:35:52;4.68;;;0.90;;
42186;SDS011;27858;51.414;0.018;2023-09-18T12:38:19;1.05;;;0.80;;
42186;SDS011;27858;51.414;0.018;2023-09-18T12:40:51;1.42;;;0.70;;
42186;SDS011;27858;51.414;0.018;2023-09-18T12:43:19;1.27;;;0.90;;
42186;SDS011;27858;51.414;0.018;2023-09-18T12:45:49;1.60;;;1.20;;
42186;SDS011;27858;51.414;0.018;2023-09-18T12:48:16;4.47;;;0.88;;
42186;SDS011;27858;51.414;0.018;2023-09-18T12:50:43;2.63;;;0.73;;
42186;SDS011;27858;51.414;0.018;2023-09-18T12:53:11;1.35;;;0.85;;
42186;SDS011;27858;51.414;0.018;2023-09-18T12:55:41;0.85;;;0.57;;
42186;SDS011;27858;51.414;0.018;2023-09-18T12:58:11;1.23;;;0.90;;
42186;SDS011;27858;51.414;0.018;2023-09-18T13:00:47;1.27;;;0.60;;
42186;SDS011;27858;51.414;0.018;2023-09-18T13:03:17;4.32;;;0.70;;
42186;SDS011;27858;51.414;0.018;2023-09-18T13:05:45;3.17;;;0.80;;
42186;SDS011;27858;51.414;0.018;2023-09-18T13:08:13;0.60;;;0.60;;
42186;SDS011;27858;51.414;0.018;2023-09-18T13:10:42;1.75;;;0.93;;
42186;SDS011;27858;51.414;0.018;2023-09-18T13:13:17;0.60;;;0.60;;
42186;SDS011;27858;51.414;0.018;2023-09-18T13:15:44;0.70;;;0.55;;
42186;SDS011;27858;51.414;0.018;2023-09-18T13:18:14;0.90;;;0.57;;
42186;SDS011;27858;51.414;0.018;2023-09-18T13:20:43;2.72;;;0.75;;
42186;SDS011;27858;51.414;0.018;2023-09-18T13:23:10;1.83;;;0.63;;
42186;SDS011;27858;51.414;0.018;2023-09-18T13:25:38;1.38;;;0.63;;
42186;SDS011;27858;51.414;0.018;2023-09-18T13:28:08;1.75;;;1.10;;
42186;SDS011;27858;51.414;0.018;2023-09-18T13:30:36;0.73;;;0.65;;
42186;SDS011;27858;51.414;0.018;2023-09-18T13:33:07;0.47;;;0.47;;
42186;SDS011;27858;51.414;0.018;2023-09-18T13:35:36;0.80;;;0.60;;
42186;SDS011;27858;51.414;0.018;2023-09-18T13:38:08;1.55;;;0.95;;
42186;SDS011;27858;51.414;0.018;2023-09-18T13:40:40;1.40;;;0.73;;
42186;SDS011;27858;51.414;0.018;2023-09-18T13:43:08;2.67;;;0.90;;
42186;SDS011;27858;51.414;0.018;2023-09-18T13:45:35;0.70;;;0.70;;
42186;SDS011;27858;51.414;0.018;2023-09-18T13:48:03;1.83;;;0.80;;
42186;SDS011;27858;51.414;0.018;2023-09-18T13:50:31;2.28;;;0.50;;
42186;SDS011;27858;51.414;0.018;2023-09-18T13:52:59;2.08;;;1.65;;
42186;SDS011;27858;51.414;0.018;2023-09-18T13:55:29;1.80;;;1.23;;
42186;SDS011;27858;51.414;0.018;2023-09-18T13:57:56;1.13;;;1.00;;
42186;SDS011;27858;51.414;0.018;2023-09-18T14:00:23;2.90;;;0.95;;
42186;SDS011;27858;51.414;0.018;2023-09-18T14:02:52;1.08;;;0.85;;
42186;SDS011;27858;51.414;0.018;2023-09-18T14:05:19;1.70;;;1.10;;
42186;SDS011;27858;51.414;0.018;2023-09-18T14:07:46;1.23;;;1.05;;
42186;SDS011;27858;51.414;0.018;2023-09-18T14:10:14;1.80;;;1.20;;
42186;SDS011;27858;51.414;0.018;2023-09-18T14:12:42;3.97;;;0.80;;
42186;SDS011;27858;51.414;0.018;2023-09-18T14:15:09;1.10;;;0.90;;
42186;SDS011;27858;51.414;0.018;2023-09-18T14:17:37;1.35;;;0.98;;
42186;SDS011;27858;51.414;0.018;2023-09-18T14:20:05;9.10;;;1.45;;
42186;SDS011;27858;51.414;0.018;2023-09-18T14:22:33;3.55;;;1.05;;
42186;SDS011;27858;51.414;0.018;2023-09-18T14:25:00;4.25;;;1.10;;
42186;SDS011;27858;51.414;0.018;2023-09-18T14:30:01;1.33;;;0.93;;
42186;SDS011;27858;51.414;0.018;2023-09-18T14:32:33;2.53;;;1.40;;
42186;SDS011;27858;51.414;0.018;2023-09-18T14:35:05;2.40;;;0.90;;
42186;SDS011;27858;51.414;0.018;2023-09-18T14:37:35;7.80;;;1.40;;
42186;SDS011;27858;51.414;0.018;2023-09-18T14:40:03;3.42;;;1.05;;
42186;SDS011;27858;51.414;0.018;2023-09-18T14:42:30;2.88;;;1.15;;
42186;SDS011;27858;51.414;0.018;2023-09-18T14:44:57;2.47;;;1.15;;
42186;SDS011;27858;51.414;0.018;2023-09-18T14:47:24;3.33;;;1.50;;
42186;SDS011;27858;51.414;0.018;2023-09-18T14:49:51;6.85;;;1.25;;
42186;SDS011;27858;51.414;0.018;2023-09-18T14:52:18;5.60;;;1.05;;
42186;SDS011;27858;51.414;0.018;2023-09-18T14:54:45;2.03;;;0.90;;
42186;SDS011;27858;51.414;0.018;2023-09-18T14:57:13;7.03;;;1.35;;
42186;SDS011;27858;51.414;0.018;2023-09-18T14:59:40;1.42;;;1.15;;
42186;SDS011;27858;51.414;0.018;2023-09-18T15:02:13;2.60;;;0.93;;
42186;SDS011;27858;51.414;0.018;2023-09-18T15:04:41;7.07;;;1.25;;
42186;SDS011;27858;51.414;0.018;2023-09-18T15:07:08;2.15;;;0.95;;
42186;SDS011;27858;51.414;0.018;2023-09-18T15:09:37;2.03;;;0.90;;
42186;SDS011;27858;51.414;0.018;2023-09-18T15:12:04;0.63;;;0.50;;
42186;SDS011;27858;51.414;0.018;2023-09-18T15:14:34;3.53;;;0.80;;
42186;SDS011;27858;51.414;0.018;2023-09-18T15:17:02;1.95;;;1.08;;
42186;SDS011;27858;51.414;0.018;2023-09-18T15:19:29;2.03;;;1.00;;
42186;SDS011;27858;51.414;0.018;2023-09-18T15:21:57;1.38;;;0.70;;
42186;SDS011;27858;51.414;0.018;2023-09-18T15:24:24;4.97;;;1.45;;
42186;SDS011;27858;51.414;0.018;2023-09-18T15:26:51;1.88;;;0.50;;